sensor_id;sensor_type;location;lat;lon;timestamp;temperature;humidity
38606;DHT22;24365;48.446;8.850;2023-06-01T00:03:49;13.10;52.70
38606;DHT22;24365;48.446;8.850;2023-06-01T00:08:51;13.00;53.60
38606;DHT22;24365;48.446;8.850;2023-06-01T00:13:52;12.90;52.80
38606;DHT22;24365;48.446;8.850;2023-06-01T00:18:53;12.90;52.90
38606;DHT22;24365;48.446;8.850;2023-06-01T00:23:56;12.90;52.90
38606;DHT22;24365;48.446;8.850;2023-06-01T00:28:58;12.80;52.90
38606;DHT22;24365;48.446;8.850;2023-06-01T00:33:59;12.60;53.20
38606;DHT22;24365;48.446;8.850;2023-06-01T00:39:00;12.50;53.40
38606;DHT22;24365;48.446;8.850;2023-06-01T00:44:05;12.50;53.90
38606;DHT22;24365;48.446;8.850;2023-06-01T00:49:07;12.40;53.70
38606;DHT22;24365;48.446;8.850;2023-06-01T00:54:08;12.30;54.60
38606;DHT22;24365;48.446;8.850;2023-06-01T00:59:12;12.20;54.40
38606;DHT22;24365;48.446;8.850;2023-06-01T01:04:15;12.10;54.50
38606;DHT22;24365;48.446;8.850;2023-06-01T01:15:12;12.00;55.00
38606;DHT22;24365;48.446;8.850;2023-06-01T01:20:20;12.00;54.90
38606;DHT22;24365;48.446;8.850;2023-06-01T01:25:39;11.90;55.30
38606;DHT22;24365;48.446;8.850;2023-06-01T01:30:46;11.80;55.50
38606;DHT22;24365;48.446;8.850;2023-06-01T01:35:49;11.60;55.70
38606;DHT22;24365;48.446;8.850;2023-06-01T01:40:51;11.60;56.10
38606;DHT22;24365;48.446;8.850;2023-06-01T01:46:03;11.60;56.10
38606;DHT22;24365;48.446;8.850;2023-06-01T01:51:15;11.60;56.20
38606;DHT22;24365;48.446;8.850;2023-06-01T01:56:18;11.50;56.40
38606;DHT22;24365;48.446;8.850;2023-06-01T02:01:20;11.40;57.10
38606;DHT22;24365;48.446;8.850;2023-06-01T02:06:21;11.30;56.90
38606;DHT22;24365;48.446;8.850;2023-06-01T02:11:22;11.20;57.30
38606;DHT22;24365;48.446;8.850;2023-06-01T02:16:23;11.20;57.20
38606;DHT22;24365;48.446;8.850;2023-06-01T02:21:24;11.20;57.30
38606;DHT22;24365;48.446;8.850;2023-06-01T02:26:25;11.10;57.50
38606;DHT22;24365;48.446;8.850;2023-06-01T02:31:27;11.00;57.50
38606;DHT22;24365;48.446;8.850;2023-06-01T02:36:28;11.00;57.50
38606;DHT22;24365;48.446;8.850;2023-06-01T02:41:30;10.90;57.60
38606;DHT22;24365;48.446;8.850;2023-06-01T02:46:31;10.90;57.80
38606;DHT22;24365;48.446;8.850;2023-06-01T02:51:32;10.90;57.80
38606;DHT22;24365;48.446;8.850;2023-06-01T02:56:56;10.80;57.90
38606;DHT22;24365;48.446;8.850;2023-06-01T03:02:19;10.60;58.20
38606;DHT22;24365;48.446;8.850;2023-06-01T03:07:21;10.50;58.50
38606;DHT22;24365;48.446;8.850;2023-06-01T03:12:24;10.50;58.90
38606;DHT22;24365;48.446;8.850;2023-06-01T03:17:26;10.40;58.70
38606;DHT22;24365;48.446;8.850;2023-06-01T03:22:27;10.30;59.10
38606;DHT22;24365;48.446;8.850;2023-06-01T03:27:28;10.20;59.60
38606;DHT22;24365;48.446;8.850;2023-06-01T03:32:29;10.20;59.50
38606;DHT22;24365;48.446;8.850;2023-06-01T03:37:34;10.20;59.70
38606;DHT22;24365;48.446;8.850;2023-06-01T03:42:40;10.10;60.00
38606;DHT22;24365;48.446;8.850;2023-06-01T03:47:42;10.10;60.20
38606;DHT22;24365;48.446;8.850;2023-06-01T03:52:44;10.10;60.70
38606;DHT22;24365;48.446;8.850;2023-06-01T03:57:46;10.10;60.50
38606;DHT22;24365;48.446;8.850;2023-06-01T04:02:49;10.10;60.20
38606;DHT22;24365;48.446;8.850;2023-06-01T04:07:54;10.20;60.60
38606;DHT22;24365;48.446;8.850;2023-06-01T04:12:57;10.30;60.30
38606;DHT22;24365;48.446;8.850;2023-06-01T04:18:01;10.30;60.30
38606;DHT22;24365;48.446;8.850;2023-06-01T04:23:19;10.40;60.50
38606;DHT22;24365;48.446;8.850;2023-06-01T04:28:22;10.40;60.50
38606;DHT22;24365;48.446;8.850;2023-06-01T04:33:25;10.40;60.70
38606;DHT22;24365;48.446;8.850;2023-06-01T04:38:27;10.40;60.70
38606;DHT22;24365;48.446;8.850;2023-06-01T04:43:28;10.50;60.90
38606;DHT22;24365;48.446;8.850;2023-06-01T04:48:29;10.60;60.30
38606;DHT22;24365;48.446;8.850;2023-06-01T04:53:34;10.80;59.90
38606;DHT22;24365;48.446;8.850;2023-06-01T04:58:35;10.90;59.60
38606;DHT22;24365;48.446;8.850;2023-06-01T05:03:37;10.90;60.10
38606;DHT22;24365;48.446;8.850;2023-06-01T05:08:39;11.00;59.30
38606;DHT22;24365;48.446;8.850;2023-06-01T05:13:41;11.20;59.50
38606;DHT22;24365;48.446;8.850;2023-06-01T05:18:42;11.40;59.00
38606;DHT22;24365;48.446;8.850;2023-06-01T05:23:44;11.70;59.10
38606;DHT22;24365;48.446;8.850;2023-06-01T05:28:46;11.90;58.30
38606;DHT22;24365;48.446;8.850;2023-06-01T05:33:49;12.10;57.80
38606;DHT22;24365;48.446;8.850;2023-06-01T05:38:52;12.40;58.00
38606;DHT22;24365;48.446;8.850;2023-06-01T05:43:53;12.60;57.90
38606;DHT22;24365;48.446;8.850;2023-06-01T05:48:56;12.80;57.00
38606;DHT22;24365;48.446;8.850;2023-06-01T05:53:57;13.00;57.40
38606;DHT22;24365;48.446;8.850;2023-06-01T05:58:59;13.20;57.60
38606;DHT22;24365;48.446;8.850;2023-06-01T06:03:59;13.60;58.50
38606;DHT22;24365;48.446;8.850;2023-06-01T06:09:00;14.00;58.60
38606;DHT22;24365;48.446;8.850;2023-06-01T06:14:02;14.20;56.90
38606;DHT22;24365;48.446;8.850;2023-06-01T06:19:03;14.50;57.10
38606;DHT22;24365;48.446;8.850;2023-06-01T06:24:04;14.90;56.80
38606;DHT22;24365;48.446;8.850;2023-06-01T06:29:05;15.20;54.30
38606;DHT22;24365;48.446;8.850;2023-06-01T06:34:06;15.50;52.90
38606;DHT22;24365;48.446;8.850;2023-06-01T06:39:07;15.60;50.10
38606;DHT22;24365;48.446;8.850;2023-06-01T06:44:08;15.90;49.10
38606;DHT22;24365;48.446;8.850;2023-06-01T06:49:09;16.30;49.20
38606;DHT22;24365;48.446;8.850;2023-06-01T06:54:10;16.50;48.40
38606;DHT22;24365;48.446;8.850;2023-06-01T06:59:11;16.90;46.60
38606;DHT22;24365;48.446;8.850;2023-06-01T07:04:13;17.40;48.80
38606;DHT22;24365;48.446;8.850;2023-06-01T07:09:14;18.00;46.60
38606;DHT22;24365;48.446;8.850;2023-06-01T07:14:15;18.30;46.10
38606;DHT22;24365;48.446;8.850;2023-06-01T07:19:16;18.70;44.60
38606;DHT22;24365;48.446;8.850;2023-06-01T07:24:18;19.10;45.30
38606;DHT22;24365;48.446;8.850;2023-06-01T07:29:22;19.70;42.00
38606;DHT22;24365;48.446;8.850;2023-06-01T07:34:23;19.90;41.50
38606;DHT22;24365;48.446;8.850;2023-06-01T07:39:25;20.30;40.70
38606;DHT22;24365;48.446;8.850;2023-06-01T07:44:26;20.70;39.80
38606;DHT22;24365;48.446;8.850;2023-06-01T07:49:28;21.00;39.00
38606;DHT22;24365;48.446;8.850;2023-06-01T07:54:30;21.30;37.30
38606;DHT22;24365;48.446;8.850;2023-06-01T07:59:31;21.60;38.00
38606;DHT22;24365;48.446;8.850;2023-06-01T08:04:32;21.80;37.00
38606;DHT22;24365;48.446;8.850;2023-06-01T08:09:38;22.20;36.90
38606;DHT22;24365;48.446;8.850;2023-06-01T08:14:39;22.40;35.20
38606;DHT22;24365;48.446;8.850;2023-06-01T08:19:41;22.70;34.60
38606;DHT22;24365;48.446;8.850;2023-06-01T08:24:43;23.00;35.20
38606;DHT22;24365;48.446;8.850;2023-06-01T08:29:47;23.20;34.90
38606;DHT22;24365;48.446;8.850;2023-06-01T08:34:49;23.50;35.60
38606;DHT22;24365;48.446;8.850;2023-06-01T08:39:50;23.80;33.30
38606;DHT22;24365;48.446;8.850;2023-06-01T08:44:54;24.10;32.60
38606;DHT22;24365;48.446;8.850;2023-06-01T08:49:58;24.50;32.60
38606;DHT22;24365;48.446;8.850;2023-06-01T08:55:00;24.60;31.80
38606;DHT22;24365;48.446;8.850;2023-06-01T09:00:02;24.80;31.40
38606;DHT22;24365;48.446;8.850;2023-06-01T09:05:05;25.10;32.10
38606;DHT22;24365;48.446;8.850;2023-06-01T09:10:06;25.20;32.00
38606;DHT22;24365;48.446;8.850;2023-06-01T09:15:15;25.50;31.10
38606;DHT22;24365;48.446;8.850;2023-06-01T09:20:28;25.60;29.60
38606;DHT22;24365;48.446;8.850;2023-06-01T09:25:31;25.70;30.20
38606;DHT22;24365;48.446;8.850;2023-06-01T09:30:42;26.00;31.30
38606;DHT22;24365;48.446;8.850;2023-06-01T09:35:48;26.20;29.20
38606;DHT22;24365;48.446;8.850;2023-06-01T09:41:00;26.30;29.30
38606;DHT22;24365;48.446;8.850;2023-06-01T09:46:09;26.50;29.10
38606;DHT22;24365;48.446;8.850;2023-06-01T09:51:23;26.60;29.30
38606;DHT22;24365;48.446;8.850;2023-06-01T09:56:27;26.90;29.70
38606;DHT22;24365;48.446;8.850;2023-06-01T10:01:31;27.00;28.20
38606;DHT22;24365;48.446;8.850;2023-06-01T10:06:38;27.10;28.80
38606;DHT22;24365;48.446;8.850;2023-06-01T10:11:44;27.30;28.40
38606;DHT22;24365;48.446;8.850;2023-06-01T10:16:47;27.40;27.70
38606;DHT22;24365;48.446;8.850;2023-06-01T10:21:49;27.60;26.50
38606;DHT22;24365;48.446;8.850;2023-06-01T10:27:18;27.70;26.20
38606;DHT22;24365;48.446;8.850;2023-06-01T10:37:37;27.60;25.40
38606;DHT22;24365;48.446;8.850;2023-06-01T10:42:38;27.70;25.60
38606;DHT22;24365;48.446;8.850;2023-06-01T10:52:40;28.20;24.20
38606;DHT22;24365;48.446;8.850;2023-06-01T10:57:44;28.40;25.10
38606;DHT22;24365;48.446;8.850;2023-06-01T11:07:54;29.10;24.70
38606;DHT22;24365;48.446;8.850;2023-06-01T11:13:15;29.00;25.10
38606;DHT22;24365;48.446;8.850;2023-06-01T11:23:47;29.10;22.70
38606;DHT22;24365;48.446;8.850;2023-06-01T11:28:49;28.80;22.00
38606;DHT22;24365;48.446;8.850;2023-06-01T11:33:52;28.90;23.70
38606;DHT22;24365;48.446;8.850;2023-06-01T11:38:54;29.40;23.20
38606;DHT22;24365;48.446;8.850;2023-06-01T11:43:59;29.80;24.30
38606;DHT22;24365;48.446;8.850;2023-06-01T11:49:04;30.30;23.00
38606;DHT22;24365;48.446;8.850;2023-06-01T11:54:06;30.30;22.90
38606;DHT22;24365;48.446;8.850;2023-06-01T11:59:08;30.30;22.70
38606;DHT22;24365;48.446;8.850;2023-06-01T12:04:14;30.00;22.90
38606;DHT22;24365;48.446;8.850;2023-06-01T12:09:15;30.20;22.90
38606;DHT22;24365;48.446;8.850;2023-06-01T12:14:17;30.00;23.00
38606;DHT22;24365;48.446;8.850;2023-06-01T12:19:19;30.00;22.90
38606;DHT22;24365;48.446;8.850;2023-06-01T12:24:31;29.90;23.20
38606;DHT22;24365;48.446;8.850;2023-06-01T12:29:44;29.90;22.30
38606;DHT22;24365;48.446;8.850;2023-06-01T12:35:03;30.10;23.00
38606;DHT22;24365;48.446;8.850;2023-06-01T12:40:05;30.30;22.30
38606;DHT22;24365;48.446;8.850;2023-06-01T12:45:07;30.70;22.30
38606;DHT22;24365;48.446;8.850;2023-06-01T12:50:10;30.20;21.20
38606;DHT22;24365;48.446;8.850;2023-06-01T12:55:11;30.50;21.70
38606;DHT22;24365;48.446;8.850;2023-06-01T13:00:13;30.30;22.20
38606;DHT22;24365;48.446;8.850;2023-06-01T13:05:14;30.50;22.20
38606;DHT22;24365;48.446;8.850;2023-06-01T13:10:17;30.90;22.00
38606;DHT22;24365;48.446;8.850;2023-06-01T13:15:17;31.10;21.50
38606;DHT22;24365;48.446;8.850;2023-06-01T13:20:19;31.50;21.70
38606;DHT22;24365;48.446;8.850;2023-06-01T13:25:21;31.60;20.90
38606;DHT22;24365;48.446;8.850;2023-06-01T13:30:22;31.40;21.50
38606;DHT22;24365;48.446;8.850;2023-06-01T13:35:23;31.50;20.60
38606;DHT22;24365;48.446;8.850;2023-06-01T13:40:24;31.30;20.30
38606;DHT22;24365;48.446;8.850;2023-06-01T13:45:26;31.30;20.50
38606;DHT22;24365;48.446;8.850;2023-06-01T13:50:28;30.90;19.10
38606;DHT22;24365;48.446;8.850;2023-06-01T13:55:30;30.60;21.00
38606;DHT22;24365;48.446;8.850;2023-06-01T14:00:31;31.00;21.20
38606;DHT22;24365;48.446;8.850;2023-06-01T14:05:32;30.70;20.90
38606;DHT22;24365;48.446;8.850;2023-06-01T14:10:34;30.70;20.60
38606;DHT22;24365;48.446;8.850;2023-06-01T14:15:36;30.20;20.90
38606;DHT22;24365;48.446;8.850;2023-06-01T14:20:37;30.10;21.50
38606;DHT22;24365;48.446;8.850;2023-06-01T14:25:40;30.30;20.50
38606;DHT22;24365;48.446;8.850;2023-06-01T14:30:41;30.50;20.30
38606;DHT22;24365;48.446;8.850;2023-06-01T14:35:42;30.60;20.40
38606;DHT22;24365;48.446;8.850;2023-06-01T14:40:46;30.60;21.00
38606;DHT22;24365;48.446;8.850;2023-06-01T14:45:48;30.30;20.60
38606;DHT22;24365;48.446;8.850;2023-06-01T14:50:51;30.30;20.40
38606;DHT22;24365;48.446;8.850;2023-06-01T14:55:52;30.30;19.80
38606;DHT22;24365;48.446;8.850;2023-06-01T15:00:54;30.20;20.30
38606;DHT22;24365;48.446;8.850;2023-06-01T15:05:56;30.10;19.90
38606;DHT22;24365;48.446;8.850;2023-06-01T15:10:57;29.90;20.70
38606;DHT22;24365;48.446;8.850;2023-06-01T15:15:57;29.80;21.10
38606;DHT22;24365;48.446;8.850;2023-06-01T15:20:58;29.50;21.60
38606;DHT22;24365;48.446;8.850;2023-06-01T15:26:01;29.30;21.70
38606;DHT22;24365;48.446;8.850;2023-06-01T15:31:02;29.40;22.30
38606;DHT22;24365;48.446;8.850;2023-06-01T15:36:03;29.70;21.70
38606;DHT22;24365;48.446;8.850;2023-06-01T15:41:06;29.70;21.80
38606;DHT22;24365;48.446;8.850;2023-06-01T15:46:07;29.70;21.70
38606;DHT22;24365;48.446;8.850;2023-06-01T15:51:10;29.30;22.20
38606;DHT22;24365;48.446;8.850;2023-06-01T15:56:11;29.40;22.60
38606;DHT22;24365;48.446;8.850;2023-06-01T16:01:12;29.30;21.40
38606;DHT22;24365;48.446;8.850;2023-06-01T16:06:13;29.10;22.10
38606;DHT22;24365;48.446;8.850;2023-06-01T16:11:14;29.00;23.10
38606;DHT22;24365;48.446;8.850;2023-06-01T16:16:15;28.90;22.20
38606;DHT22;24365;48.446;8.850;2023-06-01T16:21:16;28.80;22.80
38606;DHT22;24365;48.446;8.850;2023-06-01T16:26:17;28.90;22.40
38606;DHT22;24365;48.446;8.850;2023-06-01T16:31:18;28.80;22.40
38606;DHT22;24365;48.446;8.850;2023-06-01T16:36:19;28.50;21.90
38606;DHT22;24365;48.446;8.850;2023-06-01T16:41:20;28.40;22.90
38606;DHT22;24365;48.446;8.850;2023-06-01T16:46:22;28.20;22.30
38606;DHT22;24365;48.446;8.850;2023-06-01T16:51:23;28.00;23.00
38606;DHT22;24365;48.446;8.850;2023-06-01T16:56:24;27.90;22.80
38606;DHT22;24365;48.446;8.850;2023-06-01T17:01:27;27.60;22.10
38606;DHT22;24365;48.446;8.850;2023-06-01T17:06:27;27.30;23.00
38606;DHT22;24365;48.446;8.850;2023-06-01T17:11:28;27.20;22.80
38606;DHT22;24365;48.446;8.850;2023-06-01T17:16:29;26.90;22.80
38606;DHT22;24365;48.446;8.850;2023-06-01T17:21:31;26.80;22.40
38606;DHT22;24365;48.446;8.850;2023-06-01T17:26:31;26.70;22.90
38606;DHT22;24365;48.446;8.850;2023-06-01T17:31:33;26.60;22.60
38606;DHT22;24365;48.446;8.850;2023-06-01T17:36:34;26.40;22.20
38606;DHT22;24365;48.446;8.850;2023-06-01T17:41:35;26.30;22.60
38606;DHT22;24365;48.446;8.850;2023-06-01T17:46:35;26.20;23.30
38606;DHT22;24365;48.446;8.850;2023-06-01T17:51:37;26.10;23.90
38606;DHT22;24365;48.446;8.850;2023-06-01T17:56:39;26.00;23.80
38606;DHT22;24365;48.446;8.850;2023-06-01T18:01:40;25.70;23.60
38606;DHT22;24365;48.446;8.850;2023-06-01T18:06:41;25.60;24.40
38606;DHT22;24365;48.446;8.850;2023-06-01T18:11:42;25.50;24.90
38606;DHT22;24365;48.446;8.850;2023-06-01T18:16:43;25.30;25.70
38606;DHT22;24365;48.446;8.850;2023-06-01T18:21:44;25.20;27.30
38606;DHT22;24365;48.446;8.850;2023-06-01T18:26:45;24.90;28.00
38606;DHT22;24365;48.446;8.850;2023-06-01T18:31:46;24.80;28.50
38606;DHT22;24365;48.446;8.850;2023-06-01T18:36:47;24.60;28.60
38606;DHT22;24365;48.446;8.850;2023-06-01T18:41:49;24.40;28.30
38606;DHT22;24365;48.446;8.850;2023-06-01T18:46:50;24.10;28.40
38606;DHT22;24365;48.446;8.850;2023-06-01T18:51:50;23.80;29.60
38606;DHT22;24365;48.446;8.850;2023-06-01T18:56:54;23.70;30.30
38606;DHT22;24365;48.446;8.850;2023-06-01T19:01:57;23.50;31.20
38606;DHT22;24365;48.446;8.850;2023-06-01T19:06:58;23.20;31.20
38606;DHT22;24365;48.446;8.850;2023-06-01T19:11:59;23.10;31.90
38606;DHT22;24365;48.446;8.850;2023-06-01T19:17:00;22.80;32.10
38606;DHT22;24365;48.446;8.850;2023-06-01T19:22:02;22.70;32.50
38606;DHT22;24365;48.446;8.850;2023-06-01T19:27:06;22.50;33.00
38606;DHT22;24365;48.446;8.850;2023-06-01T19:32:08;22.20;33.70
38606;DHT22;24365;48.446;8.850;2023-06-01T19:37:10;22.00;34.10
38606;DHT22;24365;48.446;8.850;2023-06-01T19:52:39;21.50;36.10
38606;DHT22;24365;48.446;8.850;2023-06-01T19:57:42;21.30;36.30
38606;DHT22;24365;48.446;8.850;2023-06-01T20:02:47;21.10;36.90
38606;DHT22;24365;48.446;8.850;2023-06-01T20:07:52;21.00;37.30
38606;DHT22;24365;48.446;8.850;2023-06-01T20:12:58;20.80;38.00
38606;DHT22;24365;48.446;8.850;2023-06-01T20:18:04;20.60;38.40
38606;DHT22;24365;48.446;8.850;2023-06-01T20:23:09;20.40;38.80
38606;DHT22;24365;48.446;8.850;2023-06-01T20:28:44;20.30;39.30
38606;DHT22;24365;48.446;8.850;2023-06-01T20:33:46;20.10;39.40
38606;DHT22;24365;48.446;8.850;2023-06-01T20:38:47;20.00;39.60
38606;DHT22;24365;48.446;8.850;2023-06-01T20:43:50;19.80;39.90
38606;DHT22;24365;48.446;8.850;2023-06-01T20:48:56;19.60;40.80
38606;DHT22;24365;48.446;8.850;2023-06-01T20:54:08;19.50;41.50
38606;DHT22;24365;48.446;8.850;2023-06-01T20:59:11;19.30;42.20
38606;DHT22;24365;48.446;8.850;2023-06-01T21:04:15;19.20;42.20
38606;DHT22;24365;48.446;8.850;2023-06-01T21:09:17;18.90;43.10
38606;DHT22;24365;48.446;8.850;2023-06-01T21:14:19;18.80;43.50
38606;DHT22;24365;48.446;8.850;2023-06-01T21:19:21;18.60;43.90
38606;DHT22;24365;48.446;8.850;2023-06-01T21:24:22;18.50;44.50
38606;DHT22;24365;48.446;8.850;2023-06-01T21:29:23;18.20;45.20
38606;DHT22;24365;48.446;8.850;2023-06-01T21:34:23;18.10;45.50
38606;DHT22;24365;48.446;8.850;2023-06-01T21:39:37;18.10;45.70
38606;DHT22;24365;48.446;8.850;2023-06-01T21:44:38;18.00;46.00
38606;DHT22;24365;48.446;8.850;2023-06-01T21:49:39;17.80;46.30
38606;DHT22;24365;48.446;8.850;2023-06-01T21:54:40;17.60;46.80
38606;DHT22;24365;48.446;8.850;2023-06-01T21:59:41;17.60;46.80
38606;DHT22;24365;48.446;8.850;2023-06-01T22:04:42;17.40;47.10
38606;DHT22;24365;48.446;8.850;2023-06-01T22:09:43;17.20;47.40
38606;DHT22;24365;48.446;8.850;2023-06-01T22:14:44;17.20;47.80
38606;DHT22;24365;48.446;8.850;2023-06-01T22:19:46;17.10;48.10
38606;DHT22;24365;48.446;8.850;2023-06-01T22:24:47;17.00;48.60
38606;DHT22;24365;48.446;8.850;2023-06-01T22:29:49;16.80;48.80
38606;DHT22;24365;48.446;8.850;2023-06-01T22:34:50;16.70;49.10
38606;DHT22;24365;48.446;8.850;2023-06-01T22:39:52;16.70;49.70
38606;DHT22;24365;48.446;8.850;2023-06-01T22:44:54;16.70;49.40
38606;DHT22;24365;48.446;8.850;2023-06-01T22:49:55;16.50;49.70
38606;DHT22;24365;48.446;8.850;2023-06-01T22:55:01;16.40;50.10
38606;DHT22;24365;48.446;8.850;2023-06-01T23:00:06;16.30;50.80
38606;DHT22;24365;48.446;8.850;2023-06-01T23:05:08;16.30;50.60
38606;DHT22;24365;48.446;8.850;2023-06-01T23:10:09;16.10;50.70
38606;DHT22;24365;48.446;8.850;2023-06-01T23:15:12;16.10;50.70
38606;DHT22;24365;48.446;8.850;2023-06-01T23:20:13;15.90;52.10
38606;DHT22;24365;48.446;8.850;2023-06-01T23:25:16;15.80;51.30
38606;DHT22;24365;48.446;8.850;2023-06-01T23:30:18;15.60;51.90
38606;DHT22;24365;48.446;8.850;2023-06-01T23:35:19;15.50;52.60
38606;DHT22;24365;48.446;8.850;2023-06-01T23:40:21;15.40;52.60
38606;DHT22;24365;48.446;8.850;2023-06-01T23:45:22;15.30;52.80
38606;DHT22;24365;48.446;8.850;2023-06-01T23:50:23;15.30;53.00
38606;DHT22;24365;48.446;8.850;2023-06-01T23:55:24;15.10;54.10
